TFM - Tactical Decision Aid
ID: Runway Winds: CIG/VIS Threshold:

KSFO - San Francisco Intl, CA, US

Updated at: 1247 UTC 15 Jul 2020
Latest TAF at: 1123 UTC 15 Jul 2020

TAF Board

Time1156Z 15/13Z 15/14Z 15/15Z 15/16Z 15/17Z 15/18Z 15/19Z 15/20Z 15/21Z 15/22Z 15/23Z 16/00Z 16/01Z>>
Type OBS PRVL PRVL PRVL PRVL PRVL PRVL PRVL PRVL PRVL PRVL PRVL PRVL PRVL
VIS 10 >6 >6 >6 >6 >6 >6 >6 >6 >6 >6 >6 >6 >6
CIG 15 15 15 15 15 -- -- -- -- -- -- -- -- --
Cover BKN BKN BKN BKN BKN SCT SKC SKC SKC SKC SKC SKC SKC SKC
FltCat MVFR MVFR MVFR MVFR MVFR VFR VFR VFR VFR VFR VFR VFR VFR VFR
WX -- -- -- -- -- -- -- -- -- -- -- -- -- --
WDir 220 210 210 210 210 160 290 290 290 270 270 270 270 270
WSpd 6 5 5 5 5 3 7 7 7 15 15 15 15 15
WGst -- -- -- -- -- -- -- -- -- -- -- -- -- --

TDA Impact Legend

  None Marginal Slight Moderate High
Visibility (sm) >5 3≤X≤5 1≤X<3 0.5≤X<1 <0.5
Ceiling (100 ft) >30 10≤X≤30 4≤X<10 2≤X<4 <2
Wind Speed (kt) <15 15≤X<25 25≤X<30 ≥30
Wind Gust (kt) <15 15≤X<25 25≤X<35 ≥35
Weather No Wx Reported VCTS -TS,-FZRA TS,FZRA +TS,+FZRA
TAF
KSFO 151123Z 1512/1618 21005KT P6SM BKN015
  FM151630 16003KT P6SM SCT015
  FM151800 29007KT P6SM SKC
  FM152100 27015KT P6SM SKC
  FM160400 27010KT P6SM FEW010
  FM161100 VRB03KT P6SM FEW010


METAR
KSFO 151156Z 22006KT 10SM BKN015 15/11 A2991 RMK AO2 SLP129 T01500111 10156 20144 53001
KSFO 151117Z 22007KT 10SM BKN015 15/11 A2990 RMK AO2 T01500111
KSFO 151056Z 21005KT 10SM FEW140 15/11 A2990 RMK AO2 SLP124 T01500111
KSFO 150956Z 22004KT 10SM FEW140 14/11 A2990 RMK AO2 SLP125 T01440111

Radar Display
Forecast Discussion